sensor_id;sensor_type;location;lat;lon;timestamp;temperature;humidity
19941;DHT22;10132;50.864;5.176;2022-10-17T00:00:54;14.30;99.90
19941;DHT22;10132;50.864;5.176;2022-10-17T00:02:58;14.30;99.90
19941;DHT22;10132;50.864;5.176;2022-10-17T00:05:00;14.30;99.90
19941;DHT22;10132;50.864;5.176;2022-10-17T00:07:02;14.30;99.90
19941;DHT22;10132;50.864;5.176;2022-10-17T00:09:04;14.30;99.90
19941;DHT22;10132;50.864;5.176;2022-10-17T00:11:11;14.30;99.90
19941;DHT22;10132;50.864;5.176;2022-10-17T00:13:13;14.30;99.90
19941;DHT22;10132;50.864;5.176;2022-10-17T00:15:17;14.30;99.90
19941;DHT22;10132;50.864;5.176;2022-10-17T00:17:20;14.40;99.90
19941;DHT22;10132;50.864;5.176;2022-10-17T00:19:23;14.40;99.90
19941;DHT22;10132;50.864;5.176;2022-10-17T00:21:26;14.40;99.90
19941;DHT22;10132;50.864;5.176;2022-10-17T00:23:28;14.50;99.90
19941;DHT22;10132;50.864;5.176;2022-10-17T00:25:31;14.60;99.90
19941;DHT22;10132;50.864;5.176;2022-10-17T00:27:34;14.70;99.90
19941;DHT22;10132;50.864;5.176;2022-10-17T00:29:36;14.80;99.90
19941;DHT22;10132;50.864;5.176;2022-10-17T00:31:38;14.80;99.90
19941;DHT22;10132;50.864;5.176;2022-10-17T00:33:40;14.90;99.90
19941;DHT22;10132;50.864;5.176;2022-10-17T00:35:45;14.90;99.90
19941;DHT22;10132;50.864;5.176;2022-10-17T00:37:48;14.90;99.90
19941;DHT22;10132;50.864;5.176;2022-10-17T00:39:50;14.90;99.90
19941;DHT22;10132;50.864;5.176;2022-10-17T00:41:53;14.90;99.90
19941;DHT22;10132;50.864;5.176;2022-10-17T00:43:58;14.90;99.90
19941;DHT22;10132;50.864;5.176;2022-10-17T00:46:01;14.90;99.90
19941;DHT22;10132;50.864;5.176;2022-10-17T00:48:05;15.00;99.90
19941;DHT22;10132;50.864;5.176;2022-10-17T00:50:09;15.10;99.90
19941;DHT22;10132;50.864;5.176;2022-10-17T00:52:15;15.10;99.90
19941;DHT22;10132;50.864;5.176;2022-10-17T00:54:21;15.10;99.90
19941;DHT22;10132;50.864;5.176;2022-10-17T00:56:24;15.20;99.90
19941;DHT22;10132;50.864;5.176;2022-10-17T00:58:27;15.30;99.90
19941;DHT22;10132;50.864;5.176;2022-10-17T01:00:29;15.30;99.90
19941;DHT22;10132;50.864;5.176;2022-10-17T01:02:32;15.30;99.90
19941;DHT22;10132;50.864;5.176;2022-10-17T01:04:34;15.30;99.90
19941;DHT22;10132;50.864;5.176;2022-10-17T01:06:37;15.30;99.90
19941;DHT22;10132;50.864;5.176;2022-10-17T01:08:40;15.40;99.90
19941;DHT22;10132;50.864;5.176;2022-10-17T01:10:51;15.40;99.90
19941;DHT22;10132;50.864;5.176;2022-10-17T01:13:05;15.40;99.90
19941;DHT22;10132;50.864;5.176;2022-10-17T01:15:14;15.40;99.90
19941;DHT22;10132;50.864;5.176;2022-10-17T01:17:23;15.50;99.90
19941;DHT22;10132;50.864;5.176;2022-10-17T01:19:50;15.50;99.90
19941;DHT22;10132;50.864;5.176;2022-10-17T01:21:59;15.50;99.90
19941;DHT22;10132;50.864;5.176;2022-10-17T01:24:35;15.60;99.90
19941;DHT22;10132;50.864;5.176;2022-10-17T01:27:00;15.60;99.90
19941;DHT22;10132;50.864;5.176;2022-10-17T01:29:28;15.60;99.90
19941;DHT22;10132;50.864;5.176;2022-10-17T01:31:45;15.60;99.90
19941;DHT22;10132;50.864;5.176;2022-10-17T01:33:55;15.60;99.90
19941;DHT22;10132;50.864;5.176;2022-10-17T01:36:04;15.70;99.90
19941;DHT22;10132;50.864;5.176;2022-10-17T01:38:10;15.70;99.90
19941;DHT22;10132;50.864;5.176;2022-10-17T01:40:17;15.70;99.90
19941;DHT22;10132;50.864;5.176;2022-10-17T01:42:25;15.70;99.90
19941;DHT22;10132;50.864;5.176;2022-10-17T01:44:35;15.80;99.90
19941;DHT22;10132;50.864;5.176;2022-10-17T01:46:45;15.80;99.90
19941;DHT22;10132;50.864;5.176;2022-10-17T01:48:51;15.90;99.90
19941;DHT22;10132;50.864;5.176;2022-10-17T01:51:00;15.80;99.90
19941;DHT22;10132;50.864;5.176;2022-10-17T01:53:07;15.90;99.90
19941;DHT22;10132;50.864;5.176;2022-10-17T01:55:15;15.90;99.90
19941;DHT22;10132;50.864;5.176;2022-10-17T01:57:26;15.90;99.90
19941;DHT22;10132;50.864;5.176;2022-10-17T01:59:36;15.90;99.90
19941;DHT22;10132;50.864;5.176;2022-10-17T02:01:42;16.00;99.90
19941;DHT22;10132;50.864;5.176;2022-10-17T02:03:46;16.00;99.90
19941;DHT22;10132;50.864;5.176;2022-10-17T02:05:50;16.10;99.90
19941;DHT22;10132;50.864;5.176;2022-10-17T02:07:52;16.10;99.90
19941;DHT22;10132;50.864;5.176;2022-10-17T02:09:54;16.10;99.90
19941;DHT22;10132;50.864;5.176;2022-10-17T02:12:15;16.20;99.90
19941;DHT22;10132;50.864;5.176;2022-10-17T02:14:28;16.10;99.90
19941;DHT22;10132;50.864;5.176;2022-10-17T02:16:37;16.20;99.90
19941;DHT22;10132;50.864;5.176;2022-10-17T02:18:46;16.20;99.90
19941;DHT22;10132;50.864;5.176;2022-10-17T02:20:56;16.30;99.90
19941;DHT22;10132;50.864;5.176;2022-10-17T02:23:08;16.40;99.90
19941;DHT22;10132;50.864;5.176;2022-10-17T02:25:16;16.40;99.90
19941;DHT22;10132;50.864;5.176;2022-10-17T02:27:27;16.40;99.90
19941;DHT22;10132;50.864;5.176;2022-10-17T02:29:37;16.40;99.90
19941;DHT22;10132;50.864;5.176;2022-10-17T02:31:44;16.40;99.90
19941;DHT22;10132;50.864;5.176;2022-10-17T02:33:54;16.50;99.90
19941;DHT22;10132;50.864;5.176;2022-10-17T02:36:00;16.50;99.90
19941;DHT22;10132;50.864;5.176;2022-10-17T02:38:05;16.50;99.90
19941;DHT22;10132;50.864;5.176;2022-10-17T02:40:10;16.50;99.90
19941;DHT22;10132;50.864;5.176;2022-10-17T02:42:14;16.50;99.90
19941;DHT22;10132;50.864;5.176;2022-10-17T02:44:16;16.50;99.90
19941;DHT22;10132;50.864;5.176;2022-10-17T02:46:21;16.60;99.90
19941;DHT22;10132;50.864;5.176;2022-10-17T02:48:28;16.60;99.90
19941;DHT22;10132;50.864;5.176;2022-10-17T02:50:41;16.70;99.90
19941;DHT22;10132;50.864;5.176;2022-10-17T02:52:49;16.70;99.90
19941;DHT22;10132;50.864;5.176;2022-10-17T02:54:57;16.70;99.90
19941;DHT22;10132;50.864;5.176;2022-10-17T02:57:06;16.70;99.90
19941;DHT22;10132;50.864;5.176;2022-10-17T02:59:14;16.80;99.90
19941;DHT22;10132;50.864;5.176;2022-10-17T03:01:19;16.80;99.90
19941;DHT22;10132;50.864;5.176;2022-10-17T03:03:23;16.80;99.90
19941;DHT22;10132;50.864;5.176;2022-10-17T03:05:27;16.90;99.90
19941;DHT22;10132;50.864;5.176;2022-10-17T03:07:31;16.90;99.90
19941;DHT22;10132;50.864;5.176;2022-10-17T03:09:33;16.90;99.90
19941;DHT22;10132;50.864;5.176;2022-10-17T03:11:36;16.80;99.90
19941;DHT22;10132;50.864;5.176;2022-10-17T03:13:38;16.80;99.90
19941;DHT22;10132;50.864;5.176;2022-10-17T03:15:41;16.90;99.90
19941;DHT22;10132;50.864;5.176;2022-10-17T03:17:43;16.90;99.90
19941;DHT22;10132;50.864;5.176;2022-10-17T03:19:45;16.90;99.90
19941;DHT22;10132;50.864;5.176;2022-10-17T03:21:48;16.90;99.90
19941;DHT22;10132;50.864;5.176;2022-10-17T03:23:51;16.90;99.90
19941;DHT22;10132;50.864;5.176;2022-10-17T03:25:53;16.90;99.90
19941;DHT22;10132;50.864;5.176;2022-10-17T03:27:57;17.00;99.90
19941;DHT22;10132;50.864;5.176;2022-10-17T03:29:59;17.00;99.90
19941;DHT22;10132;50.864;5.176;2022-10-17T03:32:01;17.10;99.90
19941;DHT22;10132;50.864;5.176;2022-10-17T03:34:03;17.20;99.90
19941;DHT22;10132;50.864;5.176;2022-10-17T03:36:06;17.20;99.90
19941;DHT22;10132;50.864;5.176;2022-10-17T03:38:08;17.00;99.90
19941;DHT22;10132;50.864;5.176;2022-10-17T03:40:12;17.10;99.90
19941;DHT22;10132;50.864;5.176;2022-10-17T03:42:15;17.00;99.90
19941;DHT22;10132;50.864;5.176;2022-10-17T03:44:17;17.10;99.90
19941;DHT22;10132;50.864;5.176;2022-10-17T03:46:20;17.10;99.90
19941;DHT22;10132;50.864;5.176;2022-10-17T03:48:22;17.10;99.90
19941;DHT22;10132;50.864;5.176;2022-10-17T03:50:24;17.00;99.90
19941;DHT22;10132;50.864;5.176;2022-10-17T03:52:26;17.10;99.90
19941;DHT22;10132;50.864;5.176;2022-10-17T03:54:29;17.10;99.90
19941;DHT22;10132;50.864;5.176;2022-10-17T03:56:32;17.10;99.90
19941;DHT22;10132;50.864;5.176;2022-10-17T03:58:34;17.10;99.90
19941;DHT22;10132;50.864;5.176;2022-10-17T04:00:37;17.10;99.90
19941;DHT22;10132;50.864;5.176;2022-10-17T04:02:39;17.10;99.90
19941;DHT22;10132;50.864;5.176;2022-10-17T04:04:41;17.10;99.90
19941;DHT22;10132;50.864;5.176;2022-10-17T04:06:43;17.10;99.90
19941;DHT22;10132;50.864;5.176;2022-10-17T04:08:45;17.10;99.90
19941;DHT22;10132;50.864;5.176;2022-10-17T04:10:47;17.10;99.90
19941;DHT22;10132;50.864;5.176;2022-10-17T04:12:51;17.20;99.90
19941;DHT22;10132;50.864;5.176;2022-10-17T04:14:53;17.20;99.90
19941;DHT22;10132;50.864;5.176;2022-10-17T04:16:56;17.20;99.90
19941;DHT22;10132;50.864;5.176;2022-10-17T04:18:59;17.20;99.90
19941;DHT22;10132;50.864;5.176;2022-10-17T04:21:01;17.20;99.90
19941;DHT22;10132;50.864;5.176;2022-10-17T04:23:04;17.20;99.90
19941;DHT22;10132;50.864;5.176;2022-10-17T04:25:07;17.10;99.90
19941;DHT22;10132;50.864;5.176;2022-10-17T04:27:09;17.20;99.90
19941;DHT22;10132;50.864;5.176;2022-10-17T04:29:13;17.20;99.90
19941;DHT22;10132;50.864;5.176;2022-10-17T04:31:16;17.20;99.90
19941;DHT22;10132;50.864;5.176;2022-10-17T04:33:19;17.20;99.90
19941;DHT22;10132;50.864;5.176;2022-10-17T04:35:21;17.20;99.90
19941;DHT22;10132;50.864;5.176;2022-10-17T04:37:23;17.20;99.90
19941;DHT22;10132;50.864;5.176;2022-10-17T04:39:26;17.20;99.90
19941;DHT22;10132;50.864;5.176;2022-10-17T04:41:28;17.20;99.90
19941;DHT22;10132;50.864;5.176;2022-10-17T04:43:31;17.20;99.90
19941;DHT22;10132;50.864;5.176;2022-10-17T04:45:34;17.30;99.90
19941;DHT22;10132;50.864;5.176;2022-10-17T04:47:37;17.30;99.90
19941;DHT22;10132;50.864;5.176;2022-10-17T04:49:39;17.30;99.90
19941;DHT22;10132;50.864;5.176;2022-10-17T04:51:41;17.30;99.90
19941;DHT22;10132;50.864;5.176;2022-10-17T04:53:44;17.30;99.90
19941;DHT22;10132;50.864;5.176;2022-10-17T04:55:46;17.30;99.90
19941;DHT22;10132;50.864;5.176;2022-10-17T04:57:49;17.40;99.90
19941;DHT22;10132;50.864;5.176;2022-10-17T04:59:51;17.40;99.90
19941;DHT22;10132;50.864;5.176;2022-10-17T05:01:55;17.30;99.90
19941;DHT22;10132;50.864;5.176;2022-10-17T05:03:57;17.30;99.90
19941;DHT22;10132;50.864;5.176;2022-10-17T05:06:03;17.40;99.90
19941;DHT22;10132;50.864;5.176;2022-10-17T05:08:06;17.30;99.90
19941;DHT22;10132;50.864;5.176;2022-10-17T05:10:08;17.30;99.90
19941;DHT22;10132;50.864;5.176;2022-10-17T05:12:11;17.40;99.90
19941;DHT22;10132;50.864;5.176;2022-10-17T05:14:14;17.40;99.90
19941;DHT22;10132;50.864;5.176;2022-10-17T05:16:16;17.40;99.90
19941;DHT22;10132;50.864;5.176;2022-10-17T05:18:20;17.40;99.90
19941;DHT22;10132;50.864;5.176;2022-10-17T05:20:22;17.40;99.90
19941;DHT22;10132;50.864;5.176;2022-10-17T05:22:25;17.40;99.90
19941;DHT22;10132;50.864;5.176;2022-10-17T05:24:27;17.40;99.90
19941;DHT22;10132;50.864;5.176;2022-10-17T05:26:29;17.50;99.90
19941;DHT22;10132;50.864;5.176;2022-10-17T05:28:32;17.50;99.90
19941;DHT22;10132;50.864;5.176;2022-10-17T05:30:34;17.50;99.90
19941;DHT22;10132;50.864;5.176;2022-10-17T05:32:37;17.50;99.90
19941;DHT22;10132;50.864;5.176;2022-10-17T05:34:40;17.50;99.90
19941;DHT22;10132;50.864;5.176;2022-10-17T05:36:42;17.50;99.90
19941;DHT22;10132;50.864;5.176;2022-10-17T05:38:48;17.50;99.90
19941;DHT22;10132;50.864;5.176;2022-10-17T05:40:50;17.50;99.90
19941;DHT22;10132;50.864;5.176;2022-10-17T05:42:53;17.50;99.90
19941;DHT22;10132;50.864;5.176;2022-10-17T05:44:55;17.50;99.90
19941;DHT22;10132;50.864;5.176;2022-10-17T05:46:58;17.50;99.90
19941;DHT22;10132;50.864;5.176;2022-10-17T05:49:00;17.50;99.90
19941;DHT22;10132;50.864;5.176;2022-10-17T05:51:05;17.60;99.90
19941;DHT22;10132;50.864;5.176;2022-10-17T05:53:07;17.60;99.90
19941;DHT22;10132;50.864;5.176;2022-10-17T05:55:09;17.60;99.90
19941;DHT22;10132;50.864;5.176;2022-10-17T05:57:11;17.50;99.90
19941;DHT22;10132;50.864;5.176;2022-10-17T05:59:14;17.60;99.90
19941;DHT22;10132;50.864;5.176;2022-10-17T06:01:16;17.50;99.90
19941;DHT22;10132;50.864;5.176;2022-10-17T06:03:18;17.50;99.90
19941;DHT22;10132;50.864;5.176;2022-10-17T06:05:21;17.50;99.90
19941;DHT22;10132;50.864;5.176;2022-10-17T06:07:25;17.50;99.90
19941;DHT22;10132;50.864;5.176;2022-10-17T06:09:27;17.50;99.90
19941;DHT22;10132;50.864;5.176;2022-10-17T06:11:30;17.50;99.90
19941;DHT22;10132;50.864;5.176;2022-10-17T06:13:32;17.50;99.90
19941;DHT22;10132;50.864;5.176;2022-10-17T06:15:34;17.40;99.90
19941;DHT22;10132;50.864;5.176;2022-10-17T06:17:37;17.40;99.90
19941;DHT22;10132;50.864;5.176;2022-10-17T06:19:39;17.40;99.90
19941;DHT22;10132;50.864;5.176;2022-10-17T06:21:41;17.40;99.90
19941;DHT22;10132;50.864;5.176;2022-10-17T06:23:45;17.50;99.90
19941;DHT22;10132;50.864;5.176;2022-10-17T06:25:47;17.50;99.90
19941;DHT22;10132;50.864;5.176;2022-10-17T06:27:50;17.50;99.90
19941;DHT22;10132;50.864;5.176;2022-10-17T06:29:52;17.50;99.90
19941;DHT22;10132;50.864;5.176;2022-10-17T06:31:54;17.50;99.90
19941;DHT22;10132;50.864;5.176;2022-10-17T06:33:56;17.60;99.90
19941;DHT22;10132;50.864;5.176;2022-10-17T06:35:58;17.70;99.90
19941;DHT22;10132;50.864;5.176;2022-10-17T06:38:00;17.70;99.90
19941;DHT22;10132;50.864;5.176;2022-10-17T06:40:06;17.80;99.90
19941;DHT22;10132;50.864;5.176;2022-10-17T06:42:10;17.80;99.90
19941;DHT22;10132;50.864;5.176;2022-10-17T06:44:13;17.80;99.90
19941;DHT22;10132;50.864;5.176;2022-10-17T06:46:17;17.80;99.90
19941;DHT22;10132;50.864;5.176;2022-10-17T06:48:19;17.80;99.90
19941;DHT22;10132;50.864;5.176;2022-10-17T06:50:21;17.80;99.90
19941;DHT22;10132;50.864;5.176;2022-10-17T06:52:23;17.90;99.90
19941;DHT22;10132;50.864;5.176;2022-10-17T06:54:26;17.90;99.90
19941;DHT22;10132;50.864;5.176;2022-10-17T06:56:30;18.00;99.90
19941;DHT22;10132;50.864;5.176;2022-10-17T06:58:34;18.10;99.90
19941;DHT22;10132;50.864;5.176;2022-10-17T07:00:36;18.10;99.90
19941;DHT22;10132;50.864;5.176;2022-10-17T07:02:38;18.10;99.90
19941;DHT22;10132;50.864;5.176;2022-10-17T07:04:41;18.20;99.90
19941;DHT22;10132;50.864;5.176;2022-10-17T07:06:43;18.20;99.90
19941;DHT22;10132;50.864;5.176;2022-10-17T07:08:45;18.30;99.90
19941;DHT22;10132;50.864;5.176;2022-10-17T07:10:48;18.40;99.90
19941;DHT22;10132;50.864;5.176;2022-10-17T07:12:51;18.50;99.90
19941;DHT22;10132;50.864;5.176;2022-10-17T07:14:53;18.60;99.90
19941;DHT22;10132;50.864;5.176;2022-10-17T07:16:56;18.60;99.90
19941;DHT22;10132;50.864;5.176;2022-10-17T07:18:58;18.60;99.90
19941;DHT22;10132;50.864;5.176;2022-10-17T07:21:00;18.70;99.90
19941;DHT22;10132;50.864;5.176;2022-10-17T07:23:03;18.70;99.90
19941;DHT22;10132;50.864;5.176;2022-10-17T07:25:07;18.80;99.90
19941;DHT22;10132;50.864;5.176;2022-10-17T07:27:09;18.80;99.90
19941;DHT22;10132;50.864;5.176;2022-10-17T07:29:13;18.90;99.90
19941;DHT22;10132;50.864;5.176;2022-10-17T07:31:16;18.80;99.90
19941;DHT22;10132;50.864;5.176;2022-10-17T07:33:19;18.80;99.90
19941;DHT22;10132;50.864;5.176;2022-10-17T07:35:21;18.70;99.90
19941;DHT22;10132;50.864;5.176;2022-10-17T07:37:23;18.70;99.90
19941;DHT22;10132;50.864;5.176;2022-10-17T07:39:26;18.60;99.90
19941;DHT22;10132;50.864;5.176;2022-10-17T07:41:28;18.70;99.90
19941;DHT22;10132;50.864;5.176;2022-10-17T07:43:32;18.70;99.90
19941;DHT22;10132;50.864;5.176;2022-10-17T07:45:36;18.70;99.90
19941;DHT22;10132;50.864;5.176;2022-10-17T07:47:38;18.60;99.90
19941;DHT22;10132;50.864;5.176;2022-10-17T07:49:40;18.60;99.90
19941;DHT22;10132;50.864;5.176;2022-10-17T07:51:44;18.60;99.90
19941;DHT22;10132;50.864;5.176;2022-10-17T07:53:46;18.60;99.90
19941;DHT22;10132;50.864;5.176;2022-10-17T07:55:48;18.60;99.90
19941;DHT22;10132;50.864;5.176;2022-10-17T07:57:51;18.60;99.90
19941;DHT22;10132;50.864;5.176;2022-10-17T07:59:53;18.70;99.90
19941;DHT22;10132;50.864;5.176;2022-10-17T08:01:56;18.70;99.90
19941;DHT22;10132;50.864;5.176;2022-10-17T08:03:59;18.60;99.90
19941;DHT22;10132;50.864;5.176;2022-10-17T08:06:02;18.70;99.90
19941;DHT22;10132;50.864;5.176;2022-10-17T08:08:05;18.80;99.90
19941;DHT22;10132;50.864;5.176;2022-10-17T08:10:07;18.80;99.90
19941;DHT22;10132;50.864;5.176;2022-10-17T08:12:11;18.90;99.90
19941;DHT22;10132;50.864;5.176;2022-10-17T08:14:14;18.80;99.90
19941;DHT22;10132;50.864;5.176;2022-10-17T08:16:16;18.80;99.90
19941;DHT22;10132;50.864;5.176;2022-10-17T08:18:20;18.80;99.90
19941;DHT22;10132;50.864;5.176;2022-10-17T08:20:22;18.80;99.90
19941;DHT22;10132;50.864;5.176;2022-10-17T08:22:26;19.00;99.90
19941;DHT22;10132;50.864;5.176;2022-10-17T08:24:30;19.10;99.90
19941;DHT22;10132;50.864;5.176;2022-10-17T08:26:32;19.40;99.90
19941;DHT22;10132;50.864;5.176;2022-10-17T08:28:34;19.40;99.90
19941;DHT22;10132;50.864;5.176;2022-10-17T08:30:37;19.20;99.90
19941;DHT22;10132;50.864;5.176;2022-10-17T08:32:39;19.30;99.90
19941;DHT22;10132;50.864;5.176;2022-10-17T08:34:42;19.20;99.90
19941;DHT22;10132;50.864;5.176;2022-10-17T08:36:45;19.20;99.90
19941;DHT22;10132;50.864;5.176;2022-10-17T08:38:47;19.30;99.90
19941;DHT22;10132;50.864;5.176;2022-10-17T08:40:49;19.20;99.90
19941;DHT22;10132;50.864;5.176;2022-10-17T08:43:19;19.30;99.90
19941;DHT22;10132;50.864;5.176;2022-10-17T08:45:31;19.20;99.90
19941;DHT22;10132;50.864;5.176;2022-10-17T08:47:36;19.20;99.90
19941;DHT22;10132;50.864;5.176;2022-10-17T08:49:44;19.10;99.90
19941;DHT22;10132;50.864;5.176;2022-10-17T08:51:52;19.10;99.90
19941;DHT22;10132;50.864;5.176;2022-10-17T08:54:01;19.20;99.90
19941;DHT22;10132;50.864;5.176;2022-10-17T08:56:15;19.10;99.90
19941;DHT22;10132;50.864;5.176;2022-10-17T08:58:20;19.10;99.90
19941;DHT22;10132;50.864;5.176;2022-10-17T09:00:23;19.00;99.90
19941;DHT22;10132;50.864;5.176;2022-10-17T09:02:37;19.10;99.90
19941;DHT22;10132;50.864;5.176;2022-10-17T09:05:00;19.20;99.90
19941;DHT22;10132;50.864;5.176;2022-10-17T09:07:08;19.40;99.90
19941;DHT22;10132;50.864;5.176;2022-10-17T09:09:30;19.40;99.90
19941;DHT22;10132;50.864;5.176;2022-10-17T09:11:55;19.40;99.90
19941;DHT22;10132;50.864;5.176;2022-10-17T09:14:03;19.50;99.90
19941;DHT22;10132;50.864;5.176;2022-10-17T09:16:24;19.60;99.90
19941;DHT22;10132;50.864;5.176;2022-10-17T09:18:32;19.60;99.90
19941;DHT22;10132;50.864;5.176;2022-10-17T09:20:40;19.50;99.90
19941;DHT22;10132;50.864;5.176;2022-10-17T09:22:48;19.40;99.90
19941;DHT22;10132;50.864;5.176;2022-10-17T09:24:54;19.40;99.90
19941;DHT22;10132;50.864;5.176;2022-10-17T09:26:56;19.20;99.90
19941;DHT22;10132;50.864;5.176;2022-10-17T09:28:59;19.20;99.90
19941;DHT22;10132;50.864;5.176;2022-10-17T09:31:04;19.30;99.90
19941;DHT22;10132;50.864;5.176;2022-10-17T09:33:14;19.40;99.90
19941;DHT22;10132;50.864;5.176;2022-10-17T09:35:16;19.40;99.90
19941;DHT22;10132;50.864;5.176;2022-10-17T09:37:29;19.20;99.90
19941;DHT22;10132;50.864;5.176;2022-10-17T09:39:32;19.00;99.90
19941;DHT22;10132;50.864;5.176;2022-10-17T09:41:38;18.90;99.90
19941;DHT22;10132;50.864;5.176;2022-10-17T09:43:41;19.00;99.90
19941;DHT22;10132;50.864;5.176;2022-10-17T09:45:49;19.00;99.90
19941;DHT22;10132;50.864;5.176;2022-10-17T09:47:59;19.00;99.90
19941;DHT22;10132;50.864;5.176;2022-10-17T09:50:04;19.00;99.90
19941;DHT22;10132;50.864;5.176;2022-10-17T09:52:13;18.90;99.90
19941;DHT22;10132;50.864;5.176;2022-10-17T09:54:20;18.90;99.90
19941;DHT22;10132;50.864;5.176;2022-10-17T09:56:24;18.90;99.90
19941;DHT22;10132;50.864;5.176;2022-10-17T09:58:39;18.80;99.90
19941;DHT22;10132;50.864;5.176;2022-10-17T10:00:43;18.90;99.90
19941;DHT22;10132;50.864;5.176;2022-10-17T10:02:46;19.00;99.90
19941;DHT22;10132;50.864;5.176;2022-10-17T10:04:53;19.10;99.90
19941;DHT22;10132;50.864;5.176;2022-10-17T10:07:01;19.10;99.90
19941;DHT22;10132;50.864;5.176;2022-10-17T10:09:05;19.20;99.90
19941;DHT22;10132;50.864;5.176;2022-10-17T10:11:09;19.30;99.90
19941;DHT22;10132;50.864;5.176;2022-10-17T10:13:17;19.20;99.90
19941;DHT22;10132;50.864;5.176;2022-10-17T10:15:31;19.30;99.90
19941;DHT22;10132;50.864;5.176;2022-10-17T10:17:36;19.20;99.90
19941;DHT22;10132;50.864;5.176;2022-10-17T10:19:49;19.30;99.90
19941;DHT22;10132;50.864;5.176;2022-10-17T10:21:55;19.30;99.90
19941;DHT22;10132;50.864;5.176;2022-10-17T10:24:09;19.20;99.90
19941;DHT22;10132;50.864;5.176;2022-10-17T10:26:30;19.30;99.90
19941;DHT22;10132;50.864;5.176;2022-10-17T10:28:35;19.20;99.90
19941;DHT22;10132;50.864;5.176;2022-10-17T10:30:38;19.30;99.90
19941;DHT22;10132;50.864;5.176;2022-10-17T10:32:40;19.30;99.90
19941;DHT22;10132;50.864;5.176;2022-10-17T10:34:51;19.30;99.90
19941;DHT22;10132;50.864;5.176;2022-10-17T10:36:59;19.30;99.90
19941;DHT22;10132;50.864;5.176;2022-10-17T10:39:04;19.40;99.90
19941;DHT22;10132;50.864;5.176;2022-10-17T10:41:08;19.40;99.90
19941;DHT22;10132;50.864;5.176;2022-10-17T10:43:21;19.20;99.90
19941;DHT22;10132;50.864;5.176;2022-10-17T10:45:26;19.20;99.90
19941;DHT22;10132;50.864;5.176;2022-10-17T10:47:30;19.30;99.90
19941;DHT22;10132;50.864;5.176;2022-10-17T10:49:32;19.30;99.90
19941;DHT22;10132;50.864;5.176;2022-10-17T10:51:40;19.30;99.90
19941;DHT22;10132;50.864;5.176;2022-10-17T10:53:47;19.40;99.90
19941;DHT22;10132;50.864;5.176;2022-10-17T10:55:53;19.40;99.90
19941;DHT22;10132;50.864;5.176;2022-10-17T10:58:03;19.70;99.90
19941;DHT22;10132;50.864;5.176;2022-10-17T11:00:14;19.70;99.90
19941;DHT22;10132;50.864;5.176;2022-10-17T11:02:23;19.80;99.90
19941;DHT22;10132;50.864;5.176;2022-10-17T11:04:32;19.80;99.90
19941;DHT22;10132;50.864;5.176;2022-10-17T11:06:41;19.70;99.90
19941;DHT22;10132;50.864;5.176;2022-10-17T11:08:48;19.80;99.90
19941;DHT22;10132;50.864;5.176;2022-10-17T11:11:04;19.80;99.90
19941;DHT22;10132;50.864;5.176;2022-10-17T11:13:14;19.80;99.90
19941;DHT22;10132;50.864;5.176;2022-10-17T11:15:24;19.80;99.90
19941;DHT22;10132;50.864;5.176;2022-10-17T11:17:33;19.80;99.90
19941;DHT22;10132;50.864;5.176;2022-10-17T11:19:41;19.90;99.90
19941;DHT22;10132;50.864;5.176;2022-10-17T11:21:47;20.00;99.90
19941;DHT22;10132;50.864;5.176;2022-10-17T11:23:57;19.90;99.90
19941;DHT22;10132;50.864;5.176;2022-10-17T11:26:04;20.00;99.90
19941;DHT22;10132;50.864;5.176;2022-10-17T11:28:12;19.90;99.90
19941;DHT22;10132;50.864;5.176;2022-10-17T11:30:15;20.00;99.90
19941;DHT22;10132;50.864;5.176;2022-10-17T11:32:23;20.00;99.90
19941;DHT22;10132;50.864;5.176;2022-10-17T11:34:34;19.90;99.90
19941;DHT22;10132;50.864;5.176;2022-10-17T11:36:40;20.00;99.90
19941;DHT22;10132;50.864;5.176;2022-10-17T11:38:47;19.90;99.90
19941;DHT22;10132;50.864;5.176;2022-10-17T11:40:52;19.90;99.90
19941;DHT22;10132;50.864;5.176;2022-10-17T11:42:58;19.90;99.90
19941;DHT22;10132;50.864;5.176;2022-10-17T11:45:04;19.90;99.90
19941;DHT22;10132;50.864;5.176;2022-10-17T11:47:15;19.90;99.90
19941;DHT22;10132;50.864;5.176;2022-10-17T11:49:22;20.00;99.90
19941;DHT22;10132;50.864;5.176;2022-10-17T11:51:26;20.10;99.90
19941;DHT22;10132;50.864;5.176;2022-10-17T11:53:40;20.10;99.90
19941;DHT22;10132;50.864;5.176;2022-10-17T11:55:45;20.10;99.90
19941;DHT22;10132;50.864;5.176;2022-10-17T11:58:18;20.00;99.90
19941;DHT22;10132;50.864;5.176;2022-10-17T12:00:34;19.90;99.90
19941;DHT22;10132;50.864;5.176;2022-10-17T12:02:44;19.90;99.90
19941;DHT22;10132;50.864;5.176;2022-10-17T12:04:56;19.80;99.90
19941;DHT22;10132;50.864;5.176;2022-10-17T12:07:09;19.90;99.90
19941;DHT22;10132;50.864;5.176;2022-10-17T12:09:22;19.80;99.90
19941;DHT22;10132;50.864;5.176;2022-10-17T12:11:36;19.70;99.90
19941;DHT22;10132;50.864;5.176;2022-10-17T12:13:50;19.70;99.90
19941;DHT22;10132;50.864;5.176;2022-10-17T12:15:53;19.70;99.90
19941;DHT22;10132;50.864;5.176;2022-10-17T12:17:56;19.70;99.90
19941;DHT22;10132;50.864;5.176;2022-10-17T12:20:28;19.60;99.90
19941;DHT22;10132;50.864;5.176;2022-10-17T12:22:32;19.50;99.90
19941;DHT22;10132;50.864;5.176;2022-10-17T12:24:39;19.50;99.90
19941;DHT22;10132;50.864;5.176;2022-10-17T12:26:42;19.40;99.90
19941;DHT22;10132;50.864;5.176;2022-10-17T12:28:46;19.50;99.90
19941;DHT22;10132;50.864;5.176;2022-10-17T12:30:52;19.50;99.90
19941;DHT22;10132;50.864;5.176;2022-10-17T12:33:01;19.40;99.90
19941;DHT22;10132;50.864;5.176;2022-10-17T12:35:04;19.60;99.90
19941;DHT22;10132;50.864;5.176;2022-10-17T12:37:10;19.60;99.90
19941;DHT22;10132;50.864;5.176;2022-10-17T12:39:41;19.40;99.90
19941;DHT22;10132;50.864;5.176;2022-10-17T12:41:52;19.40;99.90
19941;DHT22;10132;50.864;5.176;2022-10-17T12:43:55;19.30;99.90
19941;DHT22;10132;50.864;5.176;2022-10-17T12:45:57;19.20;99.90
19941;DHT22;10132;50.864;5.176;2022-10-17T12:48:00;19.20;99.90
19941;DHT22;10132;50.864;5.176;2022-10-17T12:50:07;19.20;99.90
19941;DHT22;10132;50.864;5.176;2022-10-17T12:53:00;19.20;99.90
19941;DHT22;10132;50.864;5.176;2022-10-17T12:55:09;19.40;99.90
19941;DHT22;10132;50.864;5.176;2022-10-17T12:57:16;19.40;99.90
19941;DHT22;10132;50.864;5.176;2022-10-17T12:59:23;19.40;99.90
19941;DHT22;10132;50.864;5.176;2022-10-17T13:01:28;19.40;99.90
19941;DHT22;10132;50.864;5.176;2022-10-17T13:03:33;19.50;99.90
19941;DHT22;10132;50.864;5.176;2022-10-17T13:05:39;19.40;99.90
19941;DHT22;10132;50.864;5.176;2022-10-17T13:07:43;19.30;99.90
19941;DHT22;10132;50.864;5.176;2022-10-17T13:09:48;19.40;99.90
19941;DHT22;10132;50.864;5.176;2022-10-17T13:11:52;19.30;99.90
19941;DHT22;10132;50.864;5.176;2022-10-17T13:13:57;19.30;99.90